sensor_id;sensor_type;location;lat;lon;timestamp;pressure;altitude;pressure_sealevel;temperature;humidity
68230;BME280;55048;52.220;5.160;2022-07-23T00:00:51;101866.22;;;18.23;66.48
68230;BME280;55048;52.220;5.160;2022-07-23T00:03:16;101837.56;;;18.02;66.25
68230;BME280;55048;52.220;5.160;2022-07-23T00:05:41;101865.91;;;18.15;66.38
68230;BME280;55048;52.220;5.160;2022-07-23T00:08:08;101874.50;;;18.17;66.65
68230;BME280;55048;52.220;5.160;2022-07-23T00:10:34;101846.16;;;18.04;66.66
68230;BME280;55048;52.220;5.160;2022-07-23T00:13:00;101857.81;;;18.15;66.63
68230;BME280;55048;52.220;5.160;2022-07-23T00:15:25;101848.63;;;18.05;66.57
68230;BME280;55048;52.220;5.160;2022-07-23T00:17:51;101856.72;;;18.10;66.69
68230;BME280;55048;52.220;5.160;2022-07-23T00:20:16;101828.34;;;17.88;66.84
68230;BME280;55048;52.220;5.160;2022-07-23T00:22:46;101841.53;;;17.89;66.62
68230;BME280;55048;52.220;5.160;2022-07-23T00:25:11;101857.75;;;18.04;66.69
68230;BME280;55048;52.220;5.160;2022-07-23T00:27:37;101822.63;;;17.79;66.35
68230;BME280;55048;52.220;5.160;2022-07-23T00:30:03;101851.22;;;17.90;66.71
68230;BME280;55048;52.220;5.160;2022-07-23T00:32:28;101854.16;;;17.89;66.46
68230;BME280;55048;52.220;5.160;2022-07-23T00:34:54;101842.28;;;17.79;66.62
68230;BME280;55048;52.220;5.160;2022-07-23T00:37:19;101835.44;;;17.67;66.87
68230;BME280;55048;52.220;5.160;2022-07-23T00:39:45;101846.81;;;17.74;67.45
68230;BME280;55048;52.220;5.160;2022-07-23T00:42:10;101841.44;;;17.74;67.01
68230;BME280;55048;52.220;5.160;2022-07-23T00:44:35;101835.69;;;17.65;67.12
68230;BME280;55048;52.220;5.160;2022-07-23T00:47:01;101851.59;;;17.72;67.22
68230;BME280;55048;52.220;5.160;2022-07-23T00:49:28;101841.88;;;17.66;67.39
68230;BME280;55048;52.220;5.160;2022-07-23T00:51:55;101806.78;;;17.45;67.24
68230;BME280;55048;52.220;5.160;2022-07-23T00:54:25;101797.31;;;17.38;67.21
68230;BME280;55048;52.220;5.160;2022-07-23T00:56:52;101837.28;;;17.61;67.39
68230;BME280;55048;52.220;5.160;2022-07-23T00:59:17;101799.16;;;17.32;67.42
68230;BME280;55048;52.220;5.160;2022-07-23T01:01:43;101832.66;;;17.51;67.45
68230;BME280;55048;52.220;5.160;2022-07-23T01:04:09;101836.72;;;17.54;67.37
68230;BME280;55048;52.220;5.160;2022-07-23T01:06:37;101766.94;;;17.00;67.75
68230;BME280;55048;52.220;5.160;2022-07-23T01:09:04;101837.47;;;17.44;67.67
68230;BME280;55048;52.220;5.160;2022-07-23T01:11:35;101833.88;;;17.39;68.16
68230;BME280;55048;52.220;5.160;2022-07-23T01:14:23;101825.56;;;17.35;68.41
68230;BME280;55048;52.220;5.160;2022-07-23T01:16:48;101805.59;;;17.26;68.32
68230;BME280;55048;52.220;5.160;2022-07-23T01:19:16;101769.94;;;17.03;68.37
68230;BME280;55048;52.220;5.160;2022-07-23T01:21:44;101796.09;;;17.18;68.51
68230;BME280;55048;52.220;5.160;2022-07-23T01:24:11;101822.81;;;17.30;68.25
68230;BME280;55048;52.220;5.160;2022-07-23T01:26:45;101804.72;;;17.20;68.32
68230;BME280;55048;52.220;5.160;2022-07-23T01:29:12;101803.44;;;17.28;68.53
68230;BME280;55048;52.220;5.160;2022-07-23T01:31:38;101806.38;;;17.26;68.60
68230;BME280;55048;52.220;5.160;2022-07-23T01:34:04;101795.81;;;17.15;68.50
68230;BME280;55048;52.220;5.160;2022-07-23T01:36:30;101816.84;;;17.23;68.24
68230;BME280;55048;52.220;5.160;2022-07-23T01:38:55;101817.91;;;17.22;68.62
68230;BME280;55048;52.220;5.160;2022-07-23T01:41:21;101811.97;;;17.20;68.72
68230;BME280;55048;52.220;5.160;2022-07-23T01:43:47;101780.38;;;17.00;68.65
68230;BME280;55048;52.220;5.160;2022-07-23T01:46:13;101804.13;;;17.13;68.84
68230;BME280;55048;52.220;5.160;2022-07-23T01:48:42;101791.94;;;17.00;68.96
68230;BME280;55048;52.220;5.160;2022-07-23T01:51:40;101767.88;;;16.83;69.06
68230;BME280;55048;52.220;5.160;2022-07-23T01:54:28;101795.38;;;16.96;69.04
68230;BME280;55048;52.220;5.160;2022-07-23T01:56:54;101812.38;;;17.06;68.99
68230;BME280;55048;52.220;5.160;2022-07-23T01:59:21;101810.25;;;17.03;68.89
68230;BME280;55048;52.220;5.160;2022-07-23T02:01:47;101775.09;;;16.83;69.00
68230;BME280;55048;52.220;5.160;2022-07-23T02:04:12;101807.25;;;17.00;69.19
68230;BME280;55048;52.220;5.160;2022-07-23T02:06:38;101762.41;;;16.73;68.98
68230;BME280;55048;52.220;5.160;2022-07-23T02:09:03;101801.56;;;16.96;68.91
68230;BME280;55048;52.220;5.160;2022-07-23T02:11:29;101826.00;;;16.95;69.10
68230;BME280;55048;52.220;5.160;2022-07-23T02:13:54;101763.03;;;16.58;68.99
68230;BME280;55048;52.220;5.160;2022-07-23T02:16:20;101778.44;;;16.68;69.08
68230;BME280;55048;52.220;5.160;2022-07-23T02:18:46;101807.66;;;16.87;69.14
68230;BME280;55048;52.220;5.160;2022-07-23T02:21:12;101724.91;;;16.29;69.48
68230;BME280;55048;52.220;5.160;2022-07-23T02:23:38;101753.00;;;16.49;69.35
68230;BME280;55048;52.220;5.160;2022-07-23T02:26:03;101749.22;;;16.45;69.49
68230;BME280;55048;52.220;5.160;2022-07-23T02:28:29;101736.31;;;16.42;69.22
68230;BME280;55048;52.220;5.160;2022-07-23T02:30:55;101711.38;;;16.19;69.51
68230;BME280;55048;52.220;5.160;2022-07-23T02:33:21;101770.25;;;16.53;69.42
68230;BME280;55048;52.220;5.160;2022-07-23T02:35:47;101801.81;;;16.68;69.60
68230;BME280;55048;52.220;5.160;2022-07-23T02:38:12;101735.00;;;16.22;69.45
68230;BME280;55048;52.220;5.160;2022-07-23T02:40:38;101818.72;;;16.68;69.31
68230;BME280;55048;52.220;5.160;2022-07-23T02:43:03;101824.63;;;16.65;69.59
68230;BME280;55048;52.220;5.160;2022-07-23T02:45:29;101697.88;;;15.87;69.61
68230;BME280;55048;52.220;5.160;2022-07-23T02:47:55;101819.75;;;16.62;69.56
68230;BME280;55048;52.220;5.160;2022-07-23T02:50:20;101822.94;;;16.59;69.69
68230;BME280;55048;52.220;5.160;2022-07-23T02:52:46;101783.63;;;16.26;69.74
68230;BME280;55048;52.220;5.160;2022-07-23T02:55:11;101830.44;;;16.57;69.87
68230;BME280;55048;52.220;5.160;2022-07-23T02:57:37;101814.41;;;16.40;69.82
68230;BME280;55048;52.220;5.160;2022-07-23T03:00:04;101839.25;;;16.52;69.70
68230;BME280;55048;52.220;5.160;2022-07-23T03:02:30;101750.34;;;16.00;69.76
68230;BME280;55048;52.220;5.160;2022-07-23T03:04:56;101832.75;;;16.48;69.93
68230;BME280;55048;52.220;5.160;2022-07-23T03:07:22;101801.94;;;16.29;69.95
68230;BME280;55048;52.220;5.160;2022-07-23T03:09:48;101794.75;;;16.13;69.89
68230;BME280;55048;52.220;5.160;2022-07-23T03:12:13;101772.41;;;16.07;69.96
68230;BME280;55048;52.220;5.160;2022-07-23T03:14:39;101744.00;;;15.89;69.69
68230;BME280;55048;52.220;5.160;2022-07-23T03:17:05;101837.25;;;16.43;69.78
68230;BME280;55048;52.220;5.160;2022-07-23T03:19:31;101729.34;;;15.75;69.95
68230;BME280;55048;52.220;5.160;2022-07-23T03:21:56;101785.34;;;16.10;70.04
68230;BME280;55048;52.220;5.160;2022-07-23T03:24:21;101789.56;;;16.06;70.00
68230;BME280;55048;52.220;5.160;2022-07-23T03:26:49;101722.63;;;15.72;70.19
68230;BME280;55048;52.220;5.160;2022-07-23T03:29:15;101831.09;;;16.42;70.56
68230;BME280;55048;52.220;5.160;2022-07-23T03:31:41;101790.28;;;16.18;70.50
68230;BME280;55048;52.220;5.160;2022-07-23T03:34:07;101821.59;;;16.35;70.69
68230;BME280;55048;52.220;5.160;2022-07-23T03:36:32;101795.13;;;16.21;70.59
68230;BME280;55048;52.220;5.160;2022-07-23T03:38:58;101777.78;;;16.07;70.76
68230;BME280;55048;52.220;5.160;2022-07-23T03:41:24;101835.97;;;16.50;70.82
68230;BME280;55048;52.220;5.160;2022-07-23T03:43:49;101817.34;;;16.39;70.67
68230;BME280;55048;52.220;5.160;2022-07-23T03:46:14;101816.84;;;16.42;70.88
68230;BME280;55048;52.220;5.160;2022-07-23T03:48:40;101764.09;;;16.08;71.04
68230;BME280;55048;52.220;5.160;2022-07-23T03:51:05;101809.03;;;16.40;71.04
68230;BME280;55048;52.220;5.160;2022-07-23T03:53:31;101730.59;;;15.89;71.11
68230;BME280;55048;52.220;5.160;2022-07-23T03:55:56;101762.25;;;16.09;71.25
68230;BME280;55048;52.220;5.160;2022-07-23T03:58:22;101808.53;;;16.43;71.38
68230;BME280;55048;52.220;5.160;2022-07-23T04:00:48;101803.88;;;16.33;71.58
68230;BME280;55048;52.220;5.160;2022-07-23T04:03:14;101770.41;;;16.19;71.32
68230;BME280;55048;52.220;5.160;2022-07-23T04:05:41;101807.72;;;16.43;71.37
68230;BME280;55048;52.220;5.160;2022-07-23T04:08:10;101809.34;;;16.44;71.39
68230;BME280;55048;52.220;5.160;2022-07-23T04:10:38;101810.09;;;16.39;71.19
68230;BME280;55048;52.220;5.160;2022-07-23T04:13:05;101787.66;;;16.23;71.17
68230;BME280;55048;52.220;5.160;2022-07-23T04:15:31;101753.19;;;15.93;70.96
68230;BME280;55048;52.220;5.160;2022-07-23T04:17:57;101799.56;;;16.32;71.09
68230;BME280;55048;52.220;5.160;2022-07-23T04:20:28;101756.81;;;16.04;71.17
68230;BME280;55048;52.220;5.160;2022-07-23T04:22:57;101799.78;;;16.31;71.33
68230;BME280;55048;52.220;5.160;2022-07-23T04:25:22;101829.00;;;16.49;70.96
68230;BME280;55048;52.220;5.160;2022-07-23T04:27:48;101831.69;;;16.49;70.92
68230;BME280;55048;52.220;5.160;2022-07-23T04:30:14;101784.97;;;16.23;70.85
68230;BME280;55048;52.220;5.160;2022-07-23T04:32:39;101784.69;;;16.25;70.86
68230;BME280;55048;52.220;5.160;2022-07-23T04:35:12;101773.09;;;16.19;70.98
68230;BME280;55048;52.220;5.160;2022-07-23T04:37:38;101835.75;;;16.52;71.06
68230;BME280;55048;52.220;5.160;2022-07-23T04:40:04;101821.38;;;16.41;71.10
68230;BME280;55048;52.220;5.160;2022-07-23T04:42:29;101789.44;;;16.18;71.11
68230;BME280;55048;52.220;5.160;2022-07-23T04:44:55;101796.81;;;16.27;71.07
68230;BME280;55048;52.220;5.160;2022-07-23T04:47:20;101818.16;;;16.39;70.87
68230;BME280;55048;52.220;5.160;2022-07-23T04:49:46;101837.88;;;16.50;71.02
68230;BME280;55048;52.220;5.160;2022-07-23T04:52:11;101802.41;;;16.26;70.94
68230;BME280;55048;52.220;5.160;2022-07-23T04:54:37;101807.41;;;16.39;71.33
68230;BME280;55048;52.220;5.160;2022-07-23T04:57:02;101843.91;;;16.62;71.01
68230;BME280;55048;52.220;5.160;2022-07-23T04:59:28;101838.00;;;16.60;70.97
68230;BME280;55048;52.220;5.160;2022-07-23T05:01:59;101792.91;;;16.40;70.88
68230;BME280;55048;52.220;5.160;2022-07-23T05:04:25;101835.06;;;16.62;71.00
68230;BME280;55048;52.220;5.160;2022-07-23T05:06:50;101796.72;;;16.44;70.69
68230;BME280;55048;52.220;5.160;2022-07-23T05:09:15;101822.16;;;16.64;70.56
68230;BME280;55048;52.220;5.160;2022-07-23T05:11:41;101797.63;;;16.55;70.87
68230;BME280;55048;52.220;5.160;2022-07-23T05:14:06;101750.97;;;16.34;70.58
68230;BME280;55048;52.220;5.160;2022-07-23T05:16:33;101800.69;;;16.64;70.49
68230;BME280;55048;52.220;5.160;2022-07-23T05:19:03;101798.31;;;16.67;70.49
68230;BME280;55048;52.220;5.160;2022-07-23T05:21:30;101836.22;;;16.93;70.72
68230;BME280;55048;52.220;5.160;2022-07-23T05:23:55;101837.91;;;17.04;70.24
68230;BME280;55048;52.220;5.160;2022-07-23T05:26:21;101827.94;;;16.99;70.27
68230;BME280;55048;52.220;5.160;2022-07-23T05:28:46;101801.97;;;16.83;70.65
68230;BME280;55048;52.220;5.160;2022-07-23T05:31:12;101851.19;;;17.16;70.52
68230;BME280;55048;52.220;5.160;2022-07-23T05:33:37;101783.94;;;16.78;70.76
68230;BME280;55048;52.220;5.160;2022-07-23T05:36:04;101861.81;;;17.32;70.37
68230;BME280;55048;52.220;5.160;2022-07-23T05:38:32;101855.66;;;17.37;70.12
68230;BME280;55048;52.220;5.160;2022-07-23T05:40:59;101851.66;;;17.40;69.60
68230;BME280;55048;52.220;5.160;2022-07-23T05:43:25;101803.38;;;17.18;69.60
68230;BME280;55048;52.220;5.160;2022-07-23T05:45:51;101839.81;;;17.36;69.04
68230;BME280;55048;52.220;5.160;2022-07-23T05:48:16;101834.44;;;17.36;69.02
68230;BME280;55048;52.220;5.160;2022-07-23T05:50:53;101867.34;;;17.53;69.03
68230;BME280;55048;52.220;5.160;2022-07-23T05:53:29;101840.84;;;17.34;68.96
68230;BME280;55048;52.220;5.160;2022-07-23T05:56:05;101868.41;;;17.52;68.62
68230;BME280;55048;52.220;5.160;2022-07-23T05:58:31;101747.97;;;16.79;68.63
68230;BME280;55048;52.220;5.160;2022-07-23T06:00:56;101824.97;;;17.33;68.52
68230;BME280;55048;52.220;5.160;2022-07-23T06:03:21;101884.56;;;17.84;68.42
68230;BME280;55048;52.220;5.160;2022-07-23T06:05:47;101877.22;;;18.22;67.72
68230;BME280;55048;52.220;5.160;2022-07-23T06:08:12;101830.97;;;18.35;66.41
68230;BME280;55048;52.220;5.160;2022-07-23T06:10:38;101855.09;;;18.93;65.46
68230;BME280;55048;52.220;5.160;2022-07-23T06:13:03;101809.56;;;19.01;64.40
68230;BME280;55048;52.220;5.160;2022-07-23T06:15:30;101863.47;;;19.57;63.37
68230;BME280;55048;52.220;5.160;2022-07-23T06:17:55;101830.03;;;19.58;62.56
68230;BME280;55048;52.220;5.160;2022-07-23T06:20:22;101875.59;;;20.06;61.96
68230;BME280;55048;52.220;5.160;2022-07-23T06:22:47;101829.16;;;19.94;61.48
68230;BME280;55048;52.220;5.160;2022-07-23T06:25:12;101818.31;;;20.04;60.52
68230;BME280;55048;52.220;5.160;2022-07-23T06:27:38;101876.50;;;20.51;59.96
68230;BME280;55048;52.220;5.160;2022-07-23T06:30:03;101836.03;;;20.35;59.44
68230;BME280;55048;52.220;5.160;2022-07-23T06:32:29;101883.94;;;20.74;59.20
68230;BME280;55048;52.220;5.160;2022-07-23T06:34:55;101858.31;;;20.67;58.86
68230;BME280;55048;52.220;5.160;2022-07-23T06:37:20;101868.00;;;20.73;58.25
68230;BME280;55048;52.220;5.160;2022-07-23T06:39:45;101884.75;;;20.80;58.16
68230;BME280;55048;52.220;5.160;2022-07-23T06:42:11;101894.22;;;20.77;57.64
68230;BME280;55048;52.220;5.160;2022-07-23T06:44:42;101861.63;;;20.53;57.26
68230;BME280;55048;52.220;5.160;2022-07-23T06:47:07;101894.09;;;20.93;57.04
68230;BME280;55048;52.220;5.160;2022-07-23T06:49:33;101898.63;;;21.02;56.66
68230;BME280;55048;52.220;5.160;2022-07-23T06:51:58;101813.59;;;20.35;56.54
68230;BME280;55048;52.220;5.160;2022-07-23T06:54:24;101894.25;;;20.72;57.04
68230;BME280;55048;52.220;5.160;2022-07-23T06:56:49;101854.97;;;20.25;56.98
68230;BME280;55048;52.220;5.160;2022-07-23T06:59:15;101844.25;;;20.00;57.46
68230;BME280;55048;52.220;5.160;2022-07-23T07:01:41;101828.66;;;19.81;57.76
68230;BME280;55048;52.220;5.160;2022-07-23T07:04:07;101900.38;;;20.18;57.70
68230;BME280;55048;52.220;5.160;2022-07-23T07:06:32;101905.53;;;20.09;57.22
68230;BME280;55048;52.220;5.160;2022-07-23T07:08:57;101849.72;;;19.74;56.92
68230;BME280;55048;52.220;5.160;2022-07-23T07:11:23;101898.00;;;20.01;57.13
68230;BME280;55048;52.220;5.160;2022-07-23T07:13:50;101834.59;;;19.58;57.09
68230;BME280;55048;52.220;5.160;2022-07-23T07:16:15;101867.25;;;19.77;56.69
68230;BME280;55048;52.220;5.160;2022-07-23T07:18:41;101884.53;;;19.81;56.18
68230;BME280;55048;52.220;5.160;2022-07-23T07:21:06;101886.16;;;19.82;56.41
68230;BME280;55048;52.220;5.160;2022-07-23T07:23:31;101865.13;;;19.69;56.57
68230;BME280;55048;52.220;5.160;2022-07-23T07:25:57;101910.41;;;20.07;56.64
68230;BME280;55048;52.220;5.160;2022-07-23T07:28:22;101901.47;;;20.17;56.18
68230;BME280;55048;52.220;5.160;2022-07-23T07:30:47;101899.25;;;20.34;55.68
68230;BME280;55048;52.220;5.160;2022-07-23T07:33:13;101897.03;;;20.42;54.67
68230;BME280;55048;52.220;5.160;2022-07-23T07:35:38;101876.00;;;20.38;54.27
68230;BME280;55048;52.220;5.160;2022-07-23T07:38:03;101852.50;;;20.39;53.70
68230;BME280;55048;52.220;5.160;2022-07-23T07:40:29;101916.03;;;20.91;53.08
68230;BME280;55048;52.220;5.160;2022-07-23T07:42:54;101897.03;;;21.01;53.33
68230;BME280;55048;52.220;5.160;2022-07-23T07:45:22;101933.88;;;21.36;53.25
68230;BME280;55048;52.220;5.160;2022-07-23T07:47:49;101924.34;;;21.44;53.23
68230;BME280;55048;52.220;5.160;2022-07-23T07:50:15;101928.06;;;21.53;52.67
68230;BME280;55048;52.220;5.160;2022-07-23T07:52:40;101926.09;;;21.64;52.13
68230;BME280;55048;52.220;5.160;2022-07-23T07:55:08;101925.94;;;21.79;51.22
68230;BME280;55048;52.220;5.160;2022-07-23T07:57:34;101912.44;;;21.74;50.47
68230;BME280;55048;52.220;5.160;2022-07-23T08:00:00;101914.13;;;21.70;49.98
68230;BME280;55048;52.220;5.160;2022-07-23T08:02:25;101813.16;;;21.06;50.07
68230;BME280;55048;52.220;5.160;2022-07-23T08:04:51;101815.00;;;21.11;49.56
68230;BME280;55048;52.220;5.160;2022-07-23T08:07:16;101795.34;;;21.00;49.24
68230;BME280;55048;52.220;5.160;2022-07-23T08:09:42;101842.75;;;21.32;49.25
68230;BME280;55048;52.220;5.160;2022-07-23T08:12:08;101802.72;;;21.24;48.72
68230;BME280;55048;52.220;5.160;2022-07-23T08:14:33;101944.06;;;22.08;49.00
68230;BME280;55048;52.220;5.160;2022-07-23T08:16:59;101938.34;;;22.14;49.26
68230;BME280;55048;52.220;5.160;2022-07-23T08:19:24;101951.00;;;22.19;49.60
68230;BME280;55048;52.220;5.160;2022-07-23T08:21:49;101937.41;;;22.24;49.31
68230;BME280;55048;52.220;5.160;2022-07-23T08:24:15;101918.22;;;22.21;48.85
68230;BME280;55048;52.220;5.160;2022-07-23T08:26:41;101929.84;;;22.45;48.32
68230;BME280;55048;52.220;5.160;2022-07-23T08:29:06;101856.09;;;22.00;47.97
68230;BME280;55048;52.220;5.160;2022-07-23T08:31:31;101871.63;;;22.19;47.83
68230;BME280;55048;52.220;5.160;2022-07-23T08:33:58;101922.19;;;22.52;47.96
68230;BME280;55048;52.220;5.160;2022-07-23T08:36:24;101882.31;;;22.34;47.60
68230;BME280;55048;52.220;5.160;2022-07-23T08:38:53;101933.97;;;22.61;47.43
68230;BME280;55048;52.220;5.160;2022-07-23T08:41:18;101858.69;;;22.15;47.60
68230;BME280;55048;52.220;5.160;2022-07-23T08:43:44;101860.97;;;22.27;47.89
68230;BME280;55048;52.220;5.160;2022-07-23T08:46:09;101921.28;;;22.81;47.44
68230;BME280;55048;52.220;5.160;2022-07-23T08:48:35;101935.44;;;22.97;47.47
68230;BME280;55048;52.220;5.160;2022-07-23T08:51:03;101905.19;;;22.84;47.03
68230;BME280;55048;52.220;5.160;2022-07-23T08:53:30;101943.44;;;23.07;46.38
68230;BME280;55048;52.220;5.160;2022-07-23T08:55:58;101856.31;;;22.71;47.06
68230;BME280;55048;52.220;5.160;2022-07-23T08:58:25;101889.03;;;22.98;47.14
68230;BME280;55048;52.220;5.160;2022-07-23T09:00:50;101796.88;;;22.55;47.08
68230;BME280;55048;52.220;5.160;2022-07-23T09:03:17;101938.47;;;23.65;46.16
68230;BME280;55048;52.220;5.160;2022-07-23T09:05:42;101881.66;;;23.36;46.08
68230;BME280;55048;52.220;5.160;2022-07-23T09:13:33;101954.84;;;24.07;44.38
68230;BME280;55048;52.220;5.160;2022-07-23T09:16:10;101953.97;;;24.25;44.79
68230;BME280;55048;52.220;5.160;2022-07-23T09:18:40;101926.78;;;24.11;44.23
68230;BME280;55048;52.220;5.160;2022-07-23T09:21:11;101850.47;;;23.66;43.98
68230;BME280;55048;52.220;5.160;2022-07-23T09:23:41;101947.69;;;24.25;44.11
68230;BME280;55048;52.220;5.160;2022-07-23T09:26:33;101929.09;;;24.18;44.41
68230;BME280;55048;52.220;5.160;2022-07-23T09:29:08;101905.63;;;23.95;43.48
68230;BME280;55048;52.220;5.160;2022-07-23T09:31:54;101906.41;;;23.95;44.19
68230;BME280;55048;52.220;5.160;2022-07-23T09:34:28;101953.66;;;24.27;44.26
68230;BME280;55048;52.220;5.160;2022-07-23T09:37:08;101909.34;;;24.12;43.52
68230;BME280;55048;52.220;5.160;2022-07-23T09:39:33;101937.06;;;24.42;43.18
68230;BME280;55048;52.220;5.160;2022-07-23T09:42:19;101950.97;;;24.54;43.45
68230;BME280;55048;52.220;5.160;2022-07-23T09:44:47;101948.13;;;24.59;43.87
68230;BME280;55048;52.220;5.160;2022-07-23T09:47:13;101866.19;;;24.11;44.39
68230;BME280;55048;52.220;5.160;2022-07-23T09:49:39;101891.72;;;24.24;43.54
68230;BME280;55048;52.220;5.160;2022-07-23T09:52:05;101949.03;;;24.68;43.43
68230;BME280;55048;52.220;5.160;2022-07-23T09:54:38;101947.16;;;24.91;43.16
68230;BME280;55048;52.220;5.160;2022-07-23T09:57:12;101922.19;;;24.76;44.79
68230;BME280;55048;52.220;5.160;2022-07-23T09:59:43;101943.69;;;24.77;44.28
68230;BME280;55048;52.220;5.160;2022-07-23T10:02:10;101945.94;;;24.98;44.58
68230;BME280;55048;52.220;5.160;2022-07-23T10:04:53;101943.00;;;25.08;43.48
68230;BME280;55048;52.220;5.160;2022-07-23T10:07:44;101932.47;;;24.79;43.17
68230;BME280;55048;52.220;5.160;2022-07-23T10:10:49;101903.50;;;24.60;43.62
68230;BME280;55048;52.220;5.160;2022-07-23T10:13:35;101889.06;;;24.74;43.60
68230;BME280;55048;52.220;5.160;2022-07-23T10:16:26;101953.19;;;25.38;42.90
68230;BME280;55048;52.220;5.160;2022-07-23T10:18:52;101916.59;;;25.08;42.95
68230;BME280;55048;52.220;5.160;2022-07-23T10:21:30;101924.66;;;25.13;43.11
68230;BME280;55048;52.220;5.160;2022-07-23T10:24:21;101943.16;;;25.25;43.47
68230;BME280;55048;52.220;5.160;2022-07-23T10:27:17;101941.22;;;25.48;43.48
68230;BME280;55048;52.220;5.160;2022-07-23T10:29:57;101908.16;;;25.41;42.70
68230;BME280;55048;52.220;5.160;2022-07-23T10:32:49;101922.44;;;25.69;42.05
68230;BME280;55048;52.220;5.160;2022-07-23T10:35:36;101915.84;;;25.39;41.68
68230;BME280;55048;52.220;5.160;2022-07-23T10:40:34;101903.84;;;25.40;42.12
68230;BME280;55048;52.220;5.160;2022-07-23T10:43:00;101951.25;;;25.61;42.06
68230;BME280;55048;52.220;5.160;2022-07-23T10:45:34;101918.00;;;25.51;41.65
68230;BME280;55048;52.220;5.160;2022-07-23T10:48:23;101942.63;;;25.68;41.90
68230;BME280;55048;52.220;5.160;2022-07-23T10:51:10;101940.88;;;25.72;42.27
68230;BME280;55048;52.220;5.160;2022-07-23T10:56:17;101923.16;;;25.83;40.91
68230;BME280;55048;52.220;5.160;2022-07-23T10:59:05;101912.38;;;25.69;40.69
68230;BME280;55048;52.220;5.160;2022-07-23T11:01:35;101934.91;;;25.92;41.16
68230;BME280;55048;52.220;5.160;2022-07-23T11:04:06;101824.13;;;25.03;40.90
68230;BME280;55048;52.220;5.160;2022-07-23T11:09:42;101933.47;;;25.64;41.82
68230;BME280;55048;52.220;5.160;2022-07-23T11:14:58;101932.34;;;25.87;42.40
68230;BME280;55048;52.220;5.160;2022-07-23T11:17:24;101924.72;;;25.98;41.54
68230;BME280;55048;52.220;5.160;2022-07-23T11:25:06;101736.00;;;25.13;40.87
68230;BME280;55048;52.220;5.160;2022-07-23T11:27:43;101933.69;;;26.47;39.74
68230;BME280;55048;52.220;5.160;2022-07-23T11:30:10;101751.44;;;25.26;40.10
68230;BME280;55048;52.220;5.160;2022-07-23T11:32:39;101917.91;;;26.27;39.21
68230;BME280;55048;52.220;5.160;2022-07-23T11:35:25;101871.59;;;25.56;39.83
68230;BME280;55048;52.220;5.160;2022-07-23T11:37:53;101944.22;;;26.31;40.39
68230;BME280;55048;52.220;5.160;2022-07-23T11:40:19;101943.72;;;26.29;40.63
68230;BME280;55048;52.220;5.160;2022-07-23T11:42:58;101947.31;;;25.99;40.88
68230;BME280;55048;52.220;5.160;2022-07-23T11:45:30;101906.97;;;25.78;41.04
68230;BME280;55048;52.220;5.160;2022-07-23T11:47:56;101937.44;;;26.20;41.04
68230;BME280;55048;52.220;5.160;2022-07-23T11:50:23;101917.13;;;26.35;40.89
68230;BME280;55048;52.220;5.160;2022-07-23T11:52:50;101889.34;;;26.24;40.90
68230;BME280;55048;52.220;5.160;2022-07-23T11:55:15;101942.38;;;26.49;39.83
68230;BME280;55048;52.220;5.160;2022-07-23T11:57:42;101925.94;;;26.32;39.99
68230;BME280;55048;52.220;5.160;2022-07-23T12:00:19;101927.78;;;26.45;40.04
68230;BME280;55048;52.220;5.160;2022-07-23T12:02:47;101935.69;;;26.73;39.86
68230;BME280;55048;52.220;5.160;2022-07-23T12:05:15;101936.34;;;26.87;40.18
68230;BME280;55048;52.220;5.160;2022-07-23T12:07:43;101854.13;;;26.45;39.98
68230;BME280;55048;52.220;5.160;2022-07-23T12:10:14;101938.13;;;27.17;39.67
68230;BME280;55048;52.220;5.160;2022-07-23T12:12:51;101881.59;;;26.83;38.99
68230;BME280;55048;52.220;5.160;2022-07-23T12:15:28;101927.81;;;27.32;38.85
68230;BME280;55048;52.220;5.160;2022-07-23T12:17:57;101926.22;;;27.31;38.45
68230;BME280;55048;52.220;5.160;2022-07-23T12:20:24;101920.47;;;27.24;38.16
68230;BME280;55048;52.220;5.160;2022-07-23T12:22:52;101860.69;;;26.53;37.53
68230;BME280;55048;52.220;5.160;2022-07-23T12:25:20;101872.91;;;26.64;38.80
68230;BME280;55048;52.220;5.160;2022-07-23T12:28:42;101922.66;;;27.04;37.94
68230;BME280;55048;52.220;5.160;2022-07-23T12:33:11;101928.66;;;27.15;37.23
68230;BME280;55048;52.220;5.160;2022-07-23T12:35:43;101874.84;;;26.81;38.33
68230;BME280;55048;52.220;5.160;2022-07-23T12:38:15;101915.94;;;27.28;37.84
68230;BME280;55048;52.220;5.160;2022-07-23T12:40:46;101861.19;;;26.89;37.43
68230;BME280;55048;52.220;5.160;2022-07-23T12:48:30;101836.28;;;27.08;36.68
68230;BME280;55048;52.220;5.160;2022-07-23T12:51:22;101870.13;;;27.42;36.91
68230;BME280;55048;52.220;5.160;2022-07-23T12:53:52;101874.94;;;27.45;36.36
68230;BME280;55048;52.220;5.160;2022-07-23T12:56:20;101897.28;;;27.47;36.93
68230;BME280;55048;52.220;5.160;2022-07-23T12:58:53;101885.41;;;27.43;36.82
68230;BME280;55048;52.220;5.160;2022-07-23T13:06:27;101901.78;;;27.43;36.25
68230;BME280;55048;52.220;5.160;2022-07-23T13:08:52;101845.44;;;27.21;36.55
68230;BME280;55048;52.220;5.160;2022-07-23T13:11:18;101865.59;;;27.46;37.32
68230;BME280;55048;52.220;5.160;2022-07-23T13:13:43;101837.34;;;27.42;36.43
68230;BME280;55048;52.220;5.160;2022-07-23T13:16:09;101905.56;;;27.77;35.63
68230;BME280;55048;52.220;5.160;2022-07-23T13:18:34;101838.03;;;27.30;35.53
68230;BME280;55048;52.220;5.160;2022-07-23T13:21:00;101857.75;;;27.44;35.52
68230;BME280;55048;52.220;5.160;2022-07-23T13:23:26;101878.41;;;27.71;35.81
68230;BME280;55048;52.220;5.160;2022-07-23T13:25:52;101889.56;;;27.96;35.89
68230;BME280;55048;52.220;5.160;2022-07-23T13:28:19;101883.63;;;27.94;35.49
68230;BME280;55048;52.220;5.160;2022-07-23T13:30:45;101853.19;;;27.75;35.61